Time;durP1;ratioP1;P1;durP2;ratioP2;P2;SDS_P1;SDS_P2;PMS_P1;PMS_P2;Temp;Humidity;BMP_temperature;BMP_pressure;BME280_temperature;BME280_humidity;BME280_pressure;Samples;Min_cycle;Max_cycle;Signal;HPM_P1;HPM_P2
2023/09/29 00:00:54;;;;;;;3.40;1.40;;;20.10;99.90;;;;;;5114703;28;20057;-58
2023/09/29 00:03:20;;;;;;;3.60;1.48;;;20.10;99.90;;;;;;5113067;28;20036;-58
2023/09/29 00:05:46;;;;;;;3.20;1.30;;;20.10;99.90;;;;;;5114747;28;20448;-57
2023/09/29 00:08:16;;;;;;;3.95;1.50;;;20.10;99.90;;;;;;5114491;28;20058;-57
2023/09/29 00:10:44;;;;;;;5.20;1.63;;;20.10;99.90;;;;;;5111769;28;20417;-56
2023/09/29 00:13:11;;;;;;;5.40;1.80;;;20.10;99.90;;;;;;5114308;28;20453;-57
2023/09/29 00:15:38;;;;;;;3.63;1.40;;;20.10;99.90;;;;;;5111653;28;20028;-56
2023/09/29 00:18:05;;;;;;;5.20;1.52;;;20.10;99.90;;;;;;5113868;28;20099;-57
2023/09/29 00:20:31;;;;;;;4.68;1.50;;;20.10;99.90;;;;;;5113283;28;20036;-57
2023/09/29 00:22:59;;;;;;;3.33;1.30;;;20.10;99.90;;;;;;5111486;28;20047;-57
2023/09/29 00:25:26;;;;;;;4.07;1.48;;;20.10;99.90;;;;;;5114229;28;20495;-58
2023/09/29 00:27:52;;;;;;;3.90;1.50;;;20.20;99.90;;;;;;5114384;28;20031;-58
2023/09/29 00:30:19;;;;;;;3.70;1.33;;;20.20;99.90;;;;;;5098537;28;20488;-56
2023/09/29 00:32:49;;;;;;;4.07;1.42;;;20.10;99.90;;;;;;5092359;28;20035;-57
2023/09/29 00:35:27;;;;;;;3.88;1.45;;;20.20;99.90;;;;;;5094815;28;20154;-58
2023/09/29 00:37:55;;;;;;;5.60;1.88;;;20.20;99.90;;;;;;5094059;28;20051;-57
2023/09/29 00:40:21;;;;;;;3.92;1.52;;;20.10;99.90;;;;;;5075641;28;20447;-57
2023/09/29 00:42:48;;;;;;;3.25;1.33;;;20.10;99.90;;;;;;5093738;28;20074;-57
2023/09/29 00:45:19;;;;;;;3.58;1.40;;;20.20;99.90;;;;;;5093535;28;20043;-58
2023/09/29 00:47:49;;;;;;;3.58;1.52;;;20.20;99.90;;;;;;5093366;28;20040;-57
2023/09/29 00:50:15;;;;;;;2.65;1.48;;;20.20;99.90;;;;;;5109075;28;20056;-57
2023/09/29 00:52:42;;;;;;;3.55;1.30;;;20.20;99.90;;;;;;5093582;28;20035;-57
2023/09/29 00:55:14;;;;;;;4.43;1.60;;;20.20;99.90;;;;;;5094527;28;20077;-57
2023/09/29 00:57:42;;;;;;;4.28;1.40;;;20.20;99.90;;;;;;5092413;28;20036;-57
2023/09/29 01:00:25;;;;;;;3.90;1.40;;;20.20;99.90;;;;;;5093276;28;20119;-57
2023/09/29 01:02:51;;;;;;;4.50;1.70;;;20.20;99.90;;;;;;5093936;28;20028;-58
2023/09/29 01:05:18;;;;;;;4.47;1.20;;;20.20;99.90;;;;;;5092136;28;20043;-57
2023/09/29 01:07:45;;;;;;;4.63;1.80;;;20.20;99.90;;;;;;5092318;28;20040;-56
2023/09/29 01:10:13;;;;;;;5.43;1.50;;;20.20;99.90;;;;;;5093205;28;20040;-57
2023/09/29 01:12:43;;;;;;;4.93;1.80;;;20.20;99.90;;;;;;5092316;28;20407;-57
2023/09/29 01:15:13;;;;;;;5.18;1.70;;;20.20;99.90;;;;;;5094280;28;20438;-57
2023/09/29 01:17:43;;;;;;;5.22;1.45;;;20.20;99.90;;;;;;5110317;28;20099;-57
2023/09/29 01:20:18;;;;;;;5.30;1.60;;;20.20;99.90;;;;;;5112438;28;20035;-57
2023/09/29 01:22:47;;;;;;;3.65;1.50;;;20.20;99.90;;;;;;5112539;28;20114;-58
2023/09/29 01:25:17;;;;;;;3.53;1.48;;;20.20;99.90;;;;;;5113534;28;20035;-57
2023/09/29 01:27:43;;;;;;;3.15;1.30;;;20.20;99.90;;;;;;5111968;28;20370;-58
2023/09/29 01:30:13;;;;;;;4.10;1.52;;;20.20;99.90;;;;;;5110593;28;20052;-61
2023/09/29 01:32:43;;;;;;;4.38;1.48;;;20.20;99.90;;;;;;5113557;28;20039;-57
2023/09/29 01:35:12;;;;;;;5.53;1.67;;;20.20;99.90;;;;;;5112543;28;20034;-59
2023/09/29 01:37:42;;;;;;;4.30;1.50;;;20.20;99.90;;;;;;5113609;28;20059;-58
2023/09/29 01:40:09;;;;;;;5.53;1.80;;;20.20;99.90;;;;;;5110704;28;20028;-57
2023/09/29 01:42:36;;;;;;;4.30;1.45;;;20.10;99.90;;;;;;5112366;28;20040;-57
2023/09/29 01:45:11;;;;;;;3.63;1.30;;;20.20;99.90;;;;;;5110642;28;20036;-57
2023/09/29 01:47:38;;;;;;;5.65;1.90;;;20.20;99.90;;;;;;5113113;28;20093;-57
2023/09/29 01:50:05;;;;;;;5.20;1.50;;;20.20;99.90;;;;;;5113340;28;20366;-57
2023/09/29 01:52:32;;;;;;;4.18;1.45;;;20.20;99.90;;;;;;5111394;28;20102;-57
2023/09/29 01:54:58;;;;;;;5.82;1.77;;;20.20;99.90;;;;;;5095410;28;20168;-58
2023/09/29 01:57:23;;;;;;;4.82;1.50;;;20.20;99.90;;;;;;5111403;28;20028;-58
2023/09/29 01:59:49;;;;;;;4.18;1.60;;;20.20;99.90;;;;;;5110495;28;20024;-58
2023/09/29 02:02:16;;;;;;;3.97;1.58;;;20.20;99.90;;;;;;5112266;28;20038;-57
2023/09/29 02:04:42;;;;;;;3.92;1.38;;;20.20;99.90;;;;;;5112241;28;20464;-57
2023/09/29 02:07:09;;;;;;;4.15;1.40;;;20.20;99.90;;;;;;5113325;28;20032;-57
2023/09/29 02:09:35;;;;;;;3.28;1.10;;;20.20;99.90;;;;;;5113126;28;20039;-58
2023/09/29 02:12:02;;;;;;;3.63;1.40;;;20.20;99.90;;;;;;5103457;28;20028;-56
2023/09/29 02:14:29;;;;;;;4.55;1.60;;;20.20;99.90;;;;;;5113322;28;20422;-57
2023/09/29 02:16:55;;;;;;;4.97;1.40;;;20.20;99.90;;;;;;5095200;28;20378;-57
2023/09/29 02:19:21;;;;;;;4.75;1.65;;;20.20;99.90;;;;;;5095112;28;20033;-58
2023/09/29 02:21:47;;;;;;;5.55;1.65;;;20.20;99.90;;;;;;5096372;28;20054;-58
2023/09/29 02:24:14;;;;;;;4.70;1.70;;;20.20;99.90;;;;;;5097407;28;20089;-57
2023/09/29 02:26:41;;;;;;;5.85;1.90;;;20.20;99.90;;;;;;5095106;28;20036;-58
2023/09/29 02:29:08;;;;;;;6.00;1.65;;;20.20;99.90;;;;;;5096371;28;20073;-57
2023/09/29 02:31:36;;;;;;;5.10;1.83;;;20.20;99.90;;;;;;5108990;28;20299;-57
2023/09/29 02:34:03;;;;;;;6.03;1.90;;;20.20;99.90;;;;;;5116677;28;20036;-57
2023/09/29 02:36:29;;;;;;;6.32;2.10;;;20.20;99.90;;;;;;5116241;28;20430;-57
2023/09/29 02:38:55;;;;;;;4.70;1.80;;;20.20;99.90;;;;;;5116563;28;20115;-57
2023/09/29 02:41:21;;;;;;;6.18;1.92;;;20.20;99.90;;;;;;5113242;28;20088;-57
2023/09/29 02:43:47;;;;;;;5.68;2.08;;;20.20;99.90;;;;;;5098509;28;20039;-57
2023/09/29 02:46:14;;;;;;;5.85;2.03;;;20.20;99.90;;;;;;5104893;28;20040;-57
2023/09/29 02:48:41;;;;;;;7.78;2.10;;;20.20;99.90;;;;;;5095749;28;20024;-57
2023/09/29 02:51:17;;;;;;;9.30;2.35;;;20.20;99.90;;;;;;5095649;28;20059;-57
2023/09/29 02:53:44;;;;;;;7.60;2.13;;;20.20;99.90;;;;;;5096923;28;20028;-58
2023/09/29 02:56:11;;;;;;;9.50;2.83;;;20.20;99.90;;;;;;5095792;28;20032;-57
2023/09/29 02:58:41;;;;;;;8.18;2.40;;;20.20;99.90;;;;;;5098173;28;20134;-57
2023/09/29 03:01:11;;;;;;;8.60;2.67;;;20.20;99.90;;;;;;5093836;28;20060;-57
2023/09/29 03:03:45;;;;;;;5.90;2.20;;;20.20;99.90;;;;;;5094305;28;20066;-57
2023/09/29 03:06:23;;;;;;;9.52;2.67;;;20.20;99.90;;;;;;5094561;28;20032;-57
2023/09/29 03:08:58;;;;;;;7.93;2.55;;;20.20;99.90;;;;;;5095612;28;20059;-57
2023/09/29 03:11:25;;;;;;;10.40;2.53;;;20.20;99.90;;;;;;5108874;28;20032;-58
2023/09/29 03:13:55;;;;;;;9.77;2.70;;;20.20;99.90;;;;;;5095426;28;20024;-57
2023/09/29 03:16:24;;;;;;;8.25;2.55;;;20.20;99.90;;;;;;5094887;28;20683;-57
2023/09/29 03:18:50;;;;;;;9.05;2.55;;;20.20;99.90;;;;;;5095404;28;20030;-57
2023/09/29 03:21:17;;;;;;;12.20;3.50;;;20.20;99.90;;;;;;5094158;28;20049;-57
2023/09/29 03:23:45;;;;;;;7.00;2.53;;;20.20;99.90;;;;;;5094910;28;20048;-58
2023/09/29 03:26:16;;;;;;;10.52;2.53;;;20.20;99.90;;;;;;5095040;28;20036;-57
2023/09/29 03:28:43;;;;;;;9.82;2.75;;;20.20;99.90;;;;;;5094942;28;20048;-57
2023/09/29 03:31:09;;;;;;;8.13;2.67;;;20.20;99.90;;;;;;5095818;28;20028;-57
2023/09/29 03:33:35;;;;;;;9.10;2.63;;;20.20;99.90;;;;;;5094803;28;20054;-57
2023/09/29 03:36:03;;;;;;;9.35;2.60;;;20.20;99.90;;;;;;5094978;28;20059;-57
2023/09/29 03:38:30;;;;;;;7.68;2.30;;;20.20;99.90;;;;;;5094643;28;20040;-57
2023/09/29 03:40:56;;;;;;;7.35;2.40;;;20.20;99.90;;;;;;5094922;28;20059;-57
2023/09/29 03:43:23;;;;;;;11.10;2.78;;;20.20;99.90;;;;;;5095951;28;20040;-57
2023/09/29 03:45:53;;;;;;;11.63;2.92;;;20.20;99.90;;;;;;5094598;28;20110;-57
2023/09/29 03:48:20;;;;;;;8.63;2.60;;;20.20;99.90;;;;;;5095358;28;20032;-57
2023/09/29 03:50:49;;;;;;;9.63;2.47;;;20.20;99.90;;;;;;5094148;28;20052;-57
2023/09/29 03:53:16;;;;;;;7.00;2.45;;;20.20;99.90;;;;;;5094552;28;20040;-58
2023/09/29 03:55:44;;;;;;;9.40;2.80;;;20.20;99.90;;;;;;5095479;28;20027;-57
2023/09/29 03:58:11;;;;;;;12.00;3.38;;;20.20;99.90;;;;;;5094526;28;20051;-58
2023/09/29 04:00:37;;;;;;;8.70;2.20;;;20.20;99.90;;;;;;5106331;28;20039;-57
2023/09/29 04:03:04;;;;;;;8.10;2.58;;;20.20;99.90;;;;;;5099668;28;20031;-57
2023/09/29 04:05:30;;;;;;;9.20;2.72;;;20.20;99.90;;;;;;5094165;28;20039;-57
2023/09/29 04:07:56;;;;;;;8.32;2.30;;;20.20;99.90;;;;;;5095386;28;20032;-57
2023/09/29 04:10:22;;;;;;;7.50;2.40;;;20.20;99.90;;;;;;5094314;28;20028;-57
2023/09/29 04:12:48;;;;;;;8.25;2.65;;;20.20;99.90;;;;;;5094074;28;20255;-57
2023/09/29 04:15:15;;;;;;;8.38;2.58;;;20.20;99.90;;;;;;5094302;28;20035;-56
2023/09/29 04:17:41;;;;;;;6.55;2.20;;;20.20;99.90;;;;;;5100877;28;20063;-57
2023/09/29 04:20:08;;;;;;;10.60;2.70;;;20.20;99.90;;;;;;5114434;28;20027;-56
2023/09/29 04:22:35;;;;;;;9.52;2.72;;;20.20;99.90;;;;;;5114159;28;20052;-57
2023/09/29 04:25:02;;;;;;;7.38;2.83;;;20.20;99.90;;;;;;5114516;28;20039;-57
2023/09/29 04:27:28;;;;;;;7.22;2.22;;;20.20;99.90;;;;;;5112646;28;20032;-58
2023/09/29 04:29:55;;;;;;;7.20;2.80;;;20.20;99.90;;;;;;5114115;28;20024;-57
2023/09/29 04:32:20;;;;;;;9.15;2.63;;;20.20;99.90;;;;;;5109126;28;20176;-57
2023/09/29 04:34:46;;;;;;;7.80;2.70;;;20.20;99.90;;;;;;5092562;28;20027;-58
2023/09/29 04:37:13;;;;;;;8.40;2.67;;;20.20;99.90;;;;;;5092268;28;20229;-57
2023/09/29 04:39:39;;;;;;;7.43;2.40;;;20.20;99.90;;;;;;5094672;28;20115;-57
2023/09/29 04:42:05;;;;;;;8.13;2.50;;;20.20;99.90;;;;;;5093809;28;20435;-57
2023/09/29 04:44:32;;;;;;;10.57;2.95;;;20.20;99.90;;;;;;5093796;28;20075;-58
2023/09/29 04:46:58;;;;;;;8.10;2.40;;;20.20;99.90;;;;;;5093413;28;20032;-57
2023/09/29 04:49:24;;;;;;;8.15;2.47;;;20.20;99.90;;;;;;5094735;28;20063;-57
2023/09/29 04:51:50;;;;;;;8.68;2.53;;;20.20;99.90;;;;;;5093246;28;20052;-57
2023/09/29 04:54:16;;;;;;;6.97;2.45;;;20.20;99.90;;;;;;5092573;28;20035;-57
2023/09/29 04:56:42;;;;;;;8.02;2.45;;;20.20;99.90;;;;;;5093414;28;20047;-57
2023/09/29 04:59:08;;;;;;;6.57;2.45;;;20.20;99.90;;;;;;5094247;28;20025;-56
2023/09/29 05:01:36;;;;;;;9.18;2.53;;;20.20;99.90;;;;;;5113547;28;20454;-62
2023/09/29 05:04:02;;;;;;;5.60;2.05;;;20.20;99.90;;;;;;5098943;28;20028;-58
2023/09/29 05:06:29;;;;;;;7.32;2.20;;;20.20;99.90;;;;;;5093425;28;20036;-57
2023/09/29 05:08:55;;;;;;;5.13;1.80;;;20.20;99.90;;;;;;5093481;28;20439;-57
2023/09/29 05:11:22;;;;;;;7.53;2.63;;;20.20;99.90;;;;;;5094488;28;20055;-57
2023/09/29 05:13:49;;;;;;;7.93;2.20;;;20.20;99.90;;;;;;5093338;28;20028;-57
2023/09/29 05:16:18;;;;;;;7.22;1.98;;;20.30;99.90;;;;;;5091987;28;20433;-57
2023/09/29 05:18:45;;;;;;;4.30;1.88;;;20.30;99.90;;;;;;5103239;28;20030;-59
2023/09/29 05:21:11;;;;;;;10.75;2.63;;;20.30;99.90;;;;;;5113616;28;20046;-58
2023/09/29 05:23:38;;;;;;;7.70;2.40;;;20.30;99.90;;;;;;5111976;28;20402;-59
2023/09/29 05:26:07;;;;;;;12.50;3.08;;;20.30;99.90;;;;;;5113824;28;20127;-57
2023/09/29 05:28:33;;;;;;;7.47;2.53;;;20.30;99.90;;;;;;5113756;28;20442;-57
2023/09/29 05:30:59;;;;;;;7.65;2.70;;;20.30;99.90;;;;;;5112121;28;20109;-60
2023/09/29 05:33:26;;;;;;;10.68;2.50;;;20.30;99.90;;;;;;5110644;28;20035;-57
2023/09/29 05:35:52;;;;;;;10.70;2.72;;;20.30;99.90;;;;;;5104259;28;20052;-58
2023/09/29 05:38:18;;;;;;;7.00;2.38;;;20.30;99.90;;;;;;5109815;28;20055;-58
2023/09/29 05:40:47;;;;;;;8.55;2.25;;;20.30;99.90;;;;;;5110129;28;20031;-57
2023/09/29 05:43:13;;;;;;;8.30;3.20;;;20.30;99.90;;;;;;5093167;28;20046;-58
2023/09/29 05:45:42;;;;;;;10.45;2.83;;;20.30;99.90;;;;;;5093185;28;20032;-57
2023/09/29 05:48:08;;;;;;;11.48;2.92;;;20.30;99.90;;;;;;5092923;28;20059;-58
2023/09/29 05:50:35;;;;;;;9.82;2.80;;;20.30;99.90;;;;;;5103880;28;20466;-57
2023/09/29 05:53:02;;;;;;;7.55;2.50;;;20.30;99.90;;;;;;5116809;28;20028;-57
2023/09/29 05:55:28;;;;;;;11.43;2.70;;;20.30;99.90;;;;;;5106444;28;20043;-59
2023/09/29 05:57:54;;;;;;;15.45;2.83;;;20.30;99.90;;;;;;5111113;28;20032;-58
2023/09/29 06:00:20;;;;;;;8.75;2.70;;;20.40;99.90;;;;;;5117090;28;20028;-59
2023/09/29 06:02:47;;;;;;;14.68;3.60;;;20.40;99.90;;;;;;5109215;28;20062;-60
2023/09/29 06:05:14;;;;;;;13.32;3.33;;;20.40;99.90;;;;;;5096871;28;20024;-61
2023/09/29 06:07:40;;;;;;;16.42;3.78;;;20.50;99.90;;;;;;5096716;28;20024;-73
2023/09/29 06:10:07;;;;;;;12.15;2.53;;;20.50;99.90;;;;;;5096430;28;20024;-59
2023/09/29 06:12:33;;;;;;;11.57;3.42;;;20.40;99.90;;;;;;5097763;28;20035;-59
2023/09/29 06:15:00;;;;;;;12.43;3.00;;;20.30;99.90;;;;;;5096458;28;20047;-59
2023/09/29 06:17:26;;;;;;;12.45;3.17;;;20.30;99.90;;;;;;5096049;28;20078;-59
2023/09/29 06:19:52;;;;;;;7.97;2.97;;;20.30;99.90;;;;;;5096227;28;20066;-59
2023/09/29 06:22:18;;;;;;;10.77;3.10;;;20.40;99.90;;;;;;5096488;28;20032;-59
2023/09/29 06:24:45;;;;;;;14.60;3.15;;;20.30;99.90;;;;;;5097521;28;20035;-59
2023/09/29 06:27:11;;;;;;;11.82;2.92;;;20.40;99.90;;;;;;5096146;28;20168;-59
2023/09/29 06:29:39;;;;;;;10.68;2.90;;;20.30;99.90;;;;;;5096372;28;20114;-58
2023/09/29 06:32:06;;;;;;;11.00;2.67;;;20.40;99.90;;;;;;5094599;28;20131;-60
2023/09/29 06:34:32;;;;;;;9.43;2.83;;;20.40;99.90;;;;;;5096356;28;20059;-61
2023/09/29 06:36:58;;;;;;;10.68;3.03;;;20.40;99.90;;;;;;5096068;28;20043;-60
2023/09/29 06:39:24;;;;;;;8.93;2.72;;;20.40;99.90;;;;;;5096391;28;20028;-61
2023/09/29 06:41:50;;;;;;;12.75;3.00;;;20.30;99.90;;;;;;5095243;28;20472;-60
2023/09/29 06:44:17;;;;;;;11.57;3.15;;;20.30;99.90;;;;;;5103115;28;20042;-60
2023/09/29 06:46:43;;;;;;;8.10;2.67;;;20.40;99.90;;;;;;5095873;28;20040;-61
2023/09/29 06:49:09;;;;;;;9.82;3.20;;;20.30;99.90;;;;;;5104745;28;20058;-62
2023/09/29 06:51:36;;;;;;;11.13;3.15;;;20.30;99.90;;;;;;5116159;28;20043;-60
2023/09/29 06:54:02;;;;;;;11.52;3.13;;;20.30;99.90;;;;;;5102527;28;20029;-61
2023/09/29 06:56:29;;;;;;;8.85;2.78;;;20.30;99.90;;;;;;5094726;28;20101;-60
2023/09/29 06:58:55;;;;;;;10.27;2.85;;;20.30;99.90;;;;;;5095790;28;20427;-64
2023/09/29 07:01:21;;;;;;;11.05;3.22;;;20.30;99.90;;;;;;5113204;28;20467;-60
2023/09/29 07:03:47;;;;;;;10.05;2.70;;;20.30;99.90;;;;;;5090581;28;20066;-60
2023/09/29 07:06:17;;;;;;;10.63;2.75;;;20.30;99.90;;;;;;5095638;28;20176;-60
2023/09/29 07:08:43;;;;;;;6.28;2.40;;;20.30;99.90;;;;;;5094562;28;20042;-60
2023/09/29 07:11:09;;;;;;;7.95;2.40;;;20.30;99.90;;;;;;5094174;28;20337;-61
2023/09/29 07:13:35;;;;;;;7.47;2.60;;;20.30;99.90;;;;;;5096549;28;20066;-60
2023/09/29 07:16:03;;;;;;;7.25;2.42;;;20.30;99.90;;;;;;5094890;28;20362;-63
2023/09/29 07:18:29;;;;;;;8.35;2.67;;;20.30;99.90;;;;;;5095527;28;20024;-60
2023/09/29 07:20:57;;;;;;;5.90;2.28;;;20.30;99.90;;;;;;5094377;28;20541;-61
2023/09/29 07:23:23;;;;;;;8.52;3.15;;;20.30;99.90;;;;;;5095613;28;20423;-60
2023/09/29 07:25:52;;;;;;;7.22;2.45;;;20.30;99.90;;;;;;5113749;28;20039;-61
2023/09/29 07:28:22;;;;;;;6.13;2.40;;;20.30;99.90;;;;;;5114551;28;20085;-61
2023/09/29 07:30:50;;;;;;;6.97;2.20;;;20.30;99.90;;;;;;5114902;28;20345;-60
2023/09/29 07:33:16;;;;;;;8.13;2.72;;;20.30;99.90;;;;;;5114353;28;20027;-60
2023/09/29 07:35:46;;;;;;;6.03;2.67;;;20.30;99.90;;;;;;5098430;28;20024;-60
2023/09/29 07:38:12;;;;;;;6.07;2.30;;;20.30;99.90;;;;;;5094145;28;20059;-62
2023/09/29 07:40:38;;;;;;;11.05;2.97;;;20.30;99.90;;;;;;5093229;28;20097;-61
2023/09/29 07:43:05;;;;;;;6.25;2.47;;;20.30;99.90;;;;;;5095307;28;20327;-61
2023/09/29 07:45:32;;;;;;;6.75;2.45;;;20.30;99.90;;;;;;5113298;28;20035;-61
2023/09/29 07:47:58;;;;;;;8.30;3.08;;;20.30;99.90;;;;;;5115779;28;20103;-61
2023/09/29 07:50:25;;;;;;;9.85;2.83;;;20.30;99.90;;;;;;5099653;28;20059;-61
2023/09/29 07:52:51;;;;;;;13.90;2.80;;;20.30;99.90;;;;;;5095401;28;20024;-60
2023/09/29 07:55:17;;;;;;;9.35;2.80;;;20.30;99.90;;;;;;5096127;28;20073;-59
2023/09/29 07:57:43;;;;;;;11.45;2.65;;;20.30;99.90;;;;;;5095183;28;20043;-59
2023/09/29 08:00:10;;;;;;;7.18;2.30;;;20.30;99.90;;;;;;5104132;28;20028;-58
2023/09/29 08:02:39;;;;;;;9.63;2.22;;;20.30;99.90;;;;;;5115186;28;20073;-58
2023/09/29 08:05:07;;;;;;;8.35;2.20;;;20.40;99.90;;;;;;5097642;28;20047;-59
2023/09/29 08:07:34;;;;;;;6.25;2.30;;;20.30;99.90;;;;;;5095099;28;20096;-61
2023/09/29 08:10:00;;;;;;;6.70;2.40;;;20.40;99.90;;;;;;5095181;28;20177;-58
2023/09/29 08:12:26;;;;;;;6.30;2.20;;;20.40;99.90;;;;;;5093787;28;20119;-59
2023/09/29 08:14:52;;;;;;;6.60;2.33;;;20.40;99.90;;;;;;5096027;28;20454;-58
2023/09/29 08:17:20;;;;;;;6.32;2.40;;;20.40;99.90;;;;;;5076456;28;20513;-58
2023/09/29 08:19:48;;;;;;;5.25;2.17;;;20.40;99.90;;;;;;5095982;28;20035;-58
2023/09/29 08:22:14;;;;;;;7.82;2.40;;;20.40;99.90;;;;;;5094608;28;20036;-61
2023/09/29 08:24:40;;;;;;;5.45;2.13;;;20.50;99.90;;;;;;5100459;28;20036;-59
2023/09/29 08:27:07;;;;;;;7.45;2.20;;;20.50;99.90;;;;;;5111991;28;20357;-60
2023/09/29 08:29:34;;;;;;;6.50;2.03;;;20.50;99.90;;;;;;5110494;28;20043;-60
2023/09/29 08:32:01;;;;;;;5.90;2.05;;;20.50;99.90;;;;;;5111211;28;20299;-60
2023/09/29 08:34:30;;;;;;;4.60;2.10;;;20.50;99.90;;;;;;5110411;28;20109;-63
2023/09/29 08:36:56;;;;;;;5.10;2.22;;;20.40;99.90;;;;;;5111645;28;20043;-63
2023/09/29 08:39:23;;;;;;;6.10;2.33;;;20.40;99.90;;;;;;5093875;28;20020;-61
2023/09/29 08:42:26;;;;;;;6.63;2.25;;;20.40;99.90;;;;;;5112217;28;20055;-61
2023/09/29 08:44:54;;;;;;;4.65;1.90;;;20.50;99.90;;;;;;5111207;28;20032;-61
2023/09/29 08:47:27;;;;;;;6.50;2.00;;;20.40;99.90;;;;;;5111752;28;20102;-64
2023/09/29 08:49:55;;;;;;;8.80;2.20;;;20.40;99.90;;;;;;5108631;28;20076;-61
2023/09/29 08:52:22;;;;;;;6.65;2.28;;;20.50;99.90;;;;;;5112224;28;20074;-62
2023/09/29 08:54:49;;;;;;;5.82;2.10;;;20.50;99.90;;;;;;5112275;28;20212;-62
2023/09/29 08:57:17;;;;;;;4.32;2.03;;;20.50;99.90;;;;;;5111933;28;20023;-62
2023/09/29 08:59:45;;;;;;;7.75;2.22;;;20.40;99.90;;;;;;5108633;28;20039;-63
2023/09/29 09:02:11;;;;;;;5.50;2.00;;;20.40;99.90;;;;;;5086964;28;20118;-57
2023/09/29 09:04:37;;;;;;;5.78;2.35;;;20.50;99.90;;;;;;5079196;28;20439;-57
2023/09/29 09:07:03;;;;;;;6.28;2.08;;;20.40;99.90;;;;;;5114763;28;20038;-57
2023/09/29 09:09:29;;;;;;;6.45;2.00;;;20.40;99.90;;;;;;5113537;28;20035;-58
2023/09/29 09:11:55;;;;;;;5.20;2.20;;;20.40;99.90;;;;;;5111160;28;20438;-58
2023/09/29 09:14:21;;;;;;;6.00;2.25;;;20.40;99.90;;;;;;5107213;28;20031;-58
2023/09/29 09:16:47;;;;;;;7.55;2.50;;;20.40;99.90;;;;;;5114305;28;20368;-58
2023/09/29 09:19:15;;;;;;;4.60;1.88;;;20.40;99.90;;;;;;5114354;28;20036;-57
2023/09/29 09:21:42;;;;;;;6.32;1.95;;;20.40;99.90;;;;;;5095165;28;20399;-57
2023/09/29 09:24:23;;;;;;;6.45;2.10;;;20.40;99.90;;;;;;5095853;28;20047;-63
2023/09/29 09:26:50;;;;;;;8.88;2.70;;;20.40;99.90;;;;;;5097191;28;20115;-59
2023/09/29 09:29:17;;;;;;;6.65;1.95;;;20.40;99.90;;;;;;5115295;28;20050;-58
2023/09/29 09:31:47;;;;;;;6.18;2.08;;;20.40;99.90;;;;;;5111650;28;20078;-59
2023/09/29 09:34:13;;;;;;;6.57;2.22;;;20.40;99.90;;;;;;5115910;28;20092;-58
2023/09/29 09:36:50;;;;;;;7.20;2.00;;;20.40;99.90;;;;;;5115339;28;20028;-58
2023/09/29 09:39:23;;;;;;;4.65;2.05;;;20.40;99.90;;;;;;5116012;28;20038;-58
2023/09/29 09:41:54;;;;;;;5.68;2.25;;;20.40;99.90;;;;;;5115101;28;20153;-57
2023/09/29 09:44:21;;;;;;;6.00;2.60;;;20.40;99.90;;;;;;5114776;28;20032;-57
2023/09/29 09:47:00;;;;;;;14.50;2.53;;;20.40;99.90;;;;;;5115207;28;20318;-57
2023/09/29 09:49:42;;;;;;;18.10;2.88;;;20.50;99.90;;;;;;5115342;28;20160;-57
2023/09/29 09:52:12;;;;;;;12.98;2.45;;;20.60;99.90;;;;;;5114930;28;20114;-52
2023/09/29 09:54:53;;;;;;;9.27;2.85;;;20.60;99.90;;;;;;5115592;28;20032;-59
2023/09/29 09:57:27;;;;;;;6.78;2.03;;;20.60;99.90;;;;;;5115022;28;20051;-54
2023/09/29 09:59:54;;;;;;;8.32;2.25;;;20.60;99.90;;;;;;5115443;28;20035;-56
2023/09/29 10:02:22;;;;;;;26.25;3.45;;;20.60;99.90;;;;;;5111652;28;20035;-56
2023/09/29 10:04:49;;;;;;;33.75;4.10;;;20.60;99.90;;;;;;5115306;28;20020;-55
2023/09/29 10:07:17;;;;;;;22.48;3.63;;;20.60;99.90;;;;;;5114391;28;20024;-53
2023/09/29 10:09:49;;;;;;;16.50;3.38;;;20.60;99.90;;;;;;5113833;28;20075;-56
2023/09/29 10:12:25;;;;;;;21.88;3.67;;;20.60;99.90;;;;;;5113434;28;20159;-55
2023/09/29 10:14:52;;;;;;;25.75;3.95;;;20.60;99.90;;;;;;5114673;28;20055;-55
2023/09/29 10:17:20;;;;;;;19.45;3.80;;;20.60;99.90;;;;;;5114206;28;20035;-52
2023/09/29 10:19:50;;;;;;;13.57;3.30;;;20.60;99.90;;;;;;5114951;28;20031;-54
2023/09/29 10:22:24;;;;;;;14.85;3.15;;;20.60;99.90;;;;;;5113161;28;20577;-54
2023/09/29 10:24:57;;;;;;;16.27;3.35;;;20.60;99.90;;;;;;5114982;28;20034;-53
2023/09/29 10:27:32;;;;;;;23.00;3.60;;;20.50;99.90;;;;;;5113772;28;20426;-61
2023/09/29 10:30:18;;;;;;;22.27;3.17;;;20.60;99.90;;;;;;5114534;28;20414;-55
2023/09/29 10:32:48;;;;;;;21.38;3.03;;;20.60;99.90;;;;;;5113366;28;20487;-59
2023/09/29 10:35:19;;;;;;;32.10;4.10;;;20.60;99.90;;;;;;5113859;28;20426;-56
2023/09/29 10:37:55;;;;;;;38.33;3.92;;;20.60;99.90;;;;;;5112709;28;20036;-56
2023/09/29 10:40:31;;;;;;;44.28;4.93;;;20.70;99.90;;;;;;5114084;28;20050;-56
2023/09/29 10:43:02;;;;;;;38.03;4.40;;;20.80;99.90;;;;;;5111254;28;20458;-59
2023/09/29 10:45:40;;;;;;;44.40;4.50;;;20.80;99.90;;;;;;5113726;28;20028;-58
2023/09/29 10:48:08;;;;;;;35.40;4.30;;;20.80;99.90;;;;;;5114144;28;20047;-62
2023/09/29 10:50:50;;;;;;;50.60;5.03;;;20.80;99.90;;;;;;5112925;28;20040;-59
2023/09/29 10:53:21;;;;;;;46.67;4.60;;;20.90;99.90;;;;;;5114011;28;20058;-58
2023/09/29 10:55:54;;;;;;;60.25;5.80;;;20.80;99.90;;;;;;5113315;28;20032;-67
2023/09/29 10:58:21;;;;;;;45.65;5.28;;;20.90;99.90;;;;;;5113813;28;20116;-67
2023/09/29 11:00:50;;;;;;;49.78;5.28;;;20.90;99.90;;;;;;5112841;28;20116;-56
2023/09/29 11:03:23;;;;;;;41.80;5.28;;;21.00;99.90;;;;;;5113217;28;20160;-52
2023/09/29 11:06:03;;;;;;;35.95;4.20;;;20.90;99.90;;;;;;5113227;28;20046;-57
2023/09/29 11:08:34;;;;;;;39.50;4.13;;;21.00;99.90;;;;;;5113313;28;20031;-57
2023/09/29 11:11:03;;;;;;;38.55;3.70;;;21.00;99.90;;;;;;5112505;28;20032;-56
2023/09/29 11:13:30;;;;;;;34.80;4.80;;;21.00;99.90;;;;;;5113297;28;20054;-56
2023/09/29 11:15:58;;;;;;;50.50;4.38;;;21.10;99.90;;;;;;5112643;28;20118;-52
2023/09/29 11:18:34;;;;;;;26.23;4.20;;;21.10;99.90;;;;;;5110259;28;20039;-52
2023/09/29 11:21:05;;;;;;;27.48;4.30;;;21.20;99.90;;;;;;5113910;28;20390;-55
2023/09/29 11:23:48;;;;;;;23.73;3.95;;;21.20;99.90;;;;;;5113055;28;20024;-58
2023/09/29 11:26:15;;;;;;;21.77;3.13;;;21.30;99.90;;;;;;5113430;28;20031;-47
2023/09/29 11:28:51;;;;;;;30.48;4.72;;;21.30;99.90;;;;;;5112673;28;20042;-47
2023/09/29 11:31:17;;;;;;;27.80;3.72;;;21.20;99.90;;;;;;5112690;28;20059;-51
2023/09/29 11:33:44;;;;;;;29.83;3.22;;;21.20;99.90;;;;;;5112262;28;20488;-51
2023/09/29 11:36:15;;;;;;;19.95;3.03;;;21.20;99.90;;;;;;5113396;27;20024;-52
2023/09/29 11:38:41;;;;;;;17.23;2.85;;;21.20;99.90;;;;;;5091293;28;20042;-50
2023/09/29 11:41:08;;;;;;;17.60;3.25;;;21.10;99.90;;;;;;5112291;28;20054;-48
2023/09/29 11:43:34;;;;;;;17.75;2.42;;;21.10;99.90;;;;;;5113166;28;20036;-54
2023/09/29 11:46:00;;;;;;;8.13;2.40;;;21.10;99.90;;;;;;5113253;28;20422;-49
2023/09/29 11:48:27;;;;;;;16.80;2.60;;;21.10;99.90;;;;;;5111377;28;20027;-62
2023/09/29 11:50:53;;;;;;;15.18;3.22;;;21.10;99.90;;;;;;5113082;28;20376;-46
2023/09/29 11:53:20;;;;;;;13.73;2.30;;;21.10;99.90;;;;;;5111460;28;20028;-49
2023/09/29 11:55:46;;;;;;;22.05;3.05;;;21.10;99.90;;;;;;5112761;28;20308;-55
2023/09/29 11:58:12;;;;;;;17.20;2.33;;;21.10;99.90;;;;;;5112430;28;20028;-51
2023/09/29 12:00:41;;;;;;;13.35;2.40;;;21.10;99.90;;;;;;5110541;28;20028;-46
2023/09/29 12:03:08;;;;;;;11.68;2.15;;;21.20;99.90;;;;;;5112310;28;20043;-48
2023/09/29 12:05:35;;;;;;;12.07;1.77;;;21.10;99.90;;;;;;5110333;28;20035;-52
2023/09/29 12:08:04;;;;;;;9.38;1.77;;;21.10;99.90;;;;;;5110133;28;20047;-59
2023/09/29 12:10:31;;;;;;;9.23;1.85;;;21.10;99.90;;;;;;5112296;28;20523;-51
2023/09/29 12:12:58;;;;;;;5.53;1.90;;;20.90;99.90;;;;;;5112681;28;20269;-49
2023/09/29 12:15:24;;;;;;;5.13;1.77;;;20.90;99.90;;;;;;5112539;28;20603;-55
2023/09/29 12:17:50;;;;;;;7.22;1.70;;;20.80;99.90;;;;;;5111336;28;20031;-51
2023/09/29 12:20:18;;;;;;;9.70;1.80;;;20.80;99.90;;;;;;5112427;28;20326;-55
2023/09/29 12:22:46;;;;;;;8.98;2.08;;;20.90;99.90;;;;;;5111429;28;20028;-52
2023/09/29 12:25:15;;;;;;;7.25;2.10;;;20.80;99.90;;;;;;5112497;28;20036;-59
2023/09/29 12:27:42;;;;;;;7.88;2.25;;;20.80;99.90;;;;;;5111450;28;20034;-47
2023/09/29 12:30:09;;;;;;;6.95;1.73;;;20.80;99.90;;;;;;5111793;28;20023;-52
2023/09/29 12:32:36;;;;;;;8.80;2.03;;;20.80;99.90;;;;;;5110860;28;20023;-55
2023/09/29 12:35:03;;;;;;;6.85;2.00;;;20.70;99.90;;;;;;5111864;28;20036;-61
2023/09/29 12:37:29;;;;;;;7.38;2.10;;;20.70;99.90;;;;;;5109158;28;20031;-58
2023/09/29 12:39:55;;;;;;;5.95;1.85;;;20.70;99.90;;;;;;5110291;28;20036;-58
2023/09/29 12:42:21;;;;;;;4.85;2.03;;;20.70;99.90;;;;;;5111730;27;20443;-58
2023/09/29 12:44:47;;;;;;;10.20;2.10;;;20.70;99.90;;;;;;5106183;28;20062;-58
2023/09/29 12:47:16;;;;;;;8.15;2.22;;;20.70;99.90;;;;;;5109105;28;20031;-59